createdAt,value
2022-12-19T00:03:16.147Z,97887.00
2022-12-19T00:08:18.065Z,97858.00
2022-12-19T00:13:19.521Z,97858.00
2022-12-19T00:18:20.914Z,97850.00
2022-12-19T00:23:22.248Z,97843.00
2022-12-19T00:28:22.966Z,97846.00
2022-12-19T00:33:24.071Z,97838.00
2022-12-19T00:38:25.501Z,97842.00
2022-12-19T00:43:26.352Z,97829.00
2022-12-19T00:48:27.190Z,97833.00
2022-12-19T00:53:28.634Z,97832.00
2022-12-19T00:58:35.288Z,97829.00
2022-12-19T01:03:36.696Z,97825.00
2022-12-19T01:08:37.911Z,97822.00
2022-12-19T01:13:39.825Z,97836.00
2022-12-19T01:18:43.248Z,97839.00
2022-12-19T01:23:43.986Z,97830.00
2022-12-19T01:28:44.911Z,97825.00
2022-12-19T01:33:45.619Z,97824.00
2022-12-19T01:38:46.385Z,97812.00
2022-12-19T01:44:24.282Z,97811.00
2022-12-19T01:49:32.461Z,97812.00
2022-12-19T01:54:36.522Z,97808.00
2022-12-19T01:59:43.048Z,97790.00
2022-12-19T02:04:45.632Z,97822.00
2022-12-19T02:09:56.811Z,97811.00
2022-12-19T02:15:03.638Z,97802.00
2022-12-19T02:20:41.532Z,97788.00
2022-12-19T02:26:15.695Z,97800.00
2022-12-19T02:31:30.402Z,97789.00
2022-12-19T02:36:41.948Z,97783.00
2022-12-19T02:41:52.235Z,97774.00
2022-12-19T02:46:58.138Z,97781.00
2022-12-19T02:53:03.458Z,97779.00
2022-12-19T03:00:51.477Z,97785.00
2022-12-19T03:06:06.418Z,97780.00
2022-12-19T03:11:12.543Z,97777.00
2022-12-19T03:16:17.013Z,97772.00
2022-12-19T03:21:28.567Z,97780.00
2022-12-19T03:26:33.719Z,97774.00
2022-12-19T03:31:36.701Z,97780.00
2022-12-19T03:36:42.971Z,97770.00
2022-12-19T03:42:03.239Z,97773.00
2022-12-19T03:47:19.834Z,97771.00
2022-12-19T03:53:23.238Z,97769.00
2022-12-19T03:58:31.252Z,97764.00
2022-12-19T04:03:32.580Z,97758.00
2022-12-19T04:08:35.919Z,97754.00
2022-12-19T04:13:48.669Z,97737.00
2022-12-19T04:20:26.814Z,97742.00
2022-12-19T04:25:33.701Z,97742.00
2022-12-19T04:30:37.101Z,97729.00
2022-12-19T04:35:38.171Z,97730.00
2022-12-19T04:40:41.474Z,97736.00
2022-12-19T04:45:42.938Z,97737.00
2022-12-19T04:50:44.062Z,97732.00
2022-12-19T04:55:45.004Z,97722.00
2022-12-19T05:00:45.941Z,97723.00
2022-12-19T05:05:46.771Z,97725.00
2022-12-19T05:10:47.620Z,97712.00
2022-12-19T05:15:55.852Z,97696.00
2022-12-19T05:20:56.944Z,97700.00
2022-12-19T05:25:59.200Z,97699.00
2022-12-19T05:31:09.653Z,97699.00
2022-12-19T05:36:11.766Z,97703.00
2022-12-19T05:41:14.981Z,97701.00
2022-12-19T05:46:16.477Z,97708.00
2022-12-19T05:51:17.286Z,97713.00
2022-12-19T05:56:20.451Z,97712.00
2022-12-19T06:01:23.890Z,97728.00
2022-12-19T06:06:25.957Z,97723.00
2022-12-19T06:11:26.726Z,97737.00
2022-12-19T06:16:27.610Z,97725.00
2022-12-19T06:21:28.440Z,97728.00
2022-12-19T06:26:30.511Z,97729.00
2022-12-19T06:31:31.469Z,97721.00
2022-12-19T06:36:32.344Z,97735.00
2022-12-19T06:41:52.126Z,97724.00
2022-12-19T06:46:53.370Z,97724.00
2022-12-19T06:51:54.212Z,97720.00
2022-12-19T06:56:55.014Z,97715.00
2022-12-19T07:02:41.622Z,97710.00
2022-12-19T07:07:42.511Z,97711.00
2022-12-19T07:12:43.379Z,97707.00
2022-12-19T07:17:44.143Z,97696.00
2022-12-19T07:22:45.968Z,97708.00
2022-12-19T07:27:47.390Z,97715.00
2022-12-19T07:32:48.586Z,97705.00
2022-12-19T07:37:50.162Z,97708.00
2022-12-19T07:42:50.970Z,97717.00
2022-12-19T07:47:52.235Z,97718.00
2022-12-19T07:52:53.121Z,97720.00
2022-12-19T07:57:54.788Z,97722.00
2022-12-19T08:02:55.689Z,97727.00
2022-12-19T08:07:57.303Z,97733.00
2022-12-19T08:12:58.040Z,97733.00
2022-12-19T08:17:58.934Z,97727.00
2022-12-19T08:22:59.848Z,97723.00
2022-12-19T08:28:01.006Z,97720.00
2022-12-19T08:33:01.762Z,97732.00
2022-12-19T08:38:02.904Z,97732.00
2022-12-19T08:43:03.722Z,97719.00
2022-12-19T08:48:05.730Z,97715.00
2022-12-19T08:53:07.604Z,97706.00
2022-12-19T08:58:08.545Z,97696.00
2022-12-19T09:03:09.695Z,97699.00
2022-12-19T09:08:12.194Z,97703.00
2022-12-19T09:13:12.928Z,97705.00
2022-12-19T09:18:13.698Z,97693.00
2022-12-19T09:23:14.445Z,97704.00
2022-12-19T09:28:27.273Z,97691.00
2022-12-19T09:33:31.148Z,97710.00
2022-12-19T09:38:34.227Z,97705.00
2022-12-19T09:44:49.566Z,97703.00
2022-12-19T09:49:51.618Z,97708.00
2022-12-19T09:54:57.624Z,97687.00
2022-12-19T10:00:19.551Z,97686.00
2022-12-19T10:07:18.655Z,97699.00
2022-12-19T10:17:24.053Z,97695.00
2022-12-19T10:22:56.308Z,97686.00
2022-12-19T10:30:08.340Z,97679.00
2022-12-19T10:35:18.794Z,97676.00
2022-12-19T10:40:28.957Z,97654.00
2022-12-19T10:45:39.883Z,97657.00
2022-12-19T10:50:42.140Z,97657.00
2022-12-19T10:55:52.986Z,97660.00
2022-12-19T11:01:39.297Z,97655.00
2022-12-19T11:07:16.931Z,97647.00
2022-12-19T11:12:56.505Z,97641.00
2022-12-19T11:29:35.298Z,97650.00
2022-12-19T11:36:04.400Z,97640.00
2022-12-19T11:41:13.781Z,97640.00
2022-12-19T11:46:34.150Z,97624.00
2022-12-19T11:54:57.827Z,97636.00
2022-12-19T12:00:04.710Z,97626.00
2022-12-19T12:05:40.088Z,97612.00
2022-12-19T12:21:33.259Z,97622.00
2022-12-19T12:39:54.343Z,97606.00
2022-12-19T12:44:58.799Z,97573.00
2022-12-19T12:50:06.829Z,97589.00
2022-12-19T12:55:34.231Z,97585.00
2022-12-19T13:00:35.696Z,97578.00
2022-12-19T13:06:40.194Z,97572.00
2022-12-19T13:12:18.772Z,97569.00
2022-12-19T13:19:18.467Z,97570.00
2022-12-19T13:24:22.488Z,97569.00
2022-12-19T13:29:32.221Z,97560.00
2022-12-19T13:34:36.355Z,97554.00
2022-12-19T13:39:59.856Z,97563.00
2022-12-19T13:45:27.187Z,97563.00
2022-12-19T13:50:40.477Z,97546.00
2022-12-19T13:55:41.322Z,97555.00
2022-12-19T14:00:42.791Z,97571.00
2022-12-19T14:06:14.705Z,97579.00
2022-12-19T14:11:43.819Z,97574.00
2022-12-19T14:18:42.799Z,97577.00
2022-12-19T14:23:45.032Z,97564.00
2022-12-19T14:28:55.020Z,97567.00
2022-12-19T14:34:43.273Z,97571.00
2022-12-19T14:41:08.305Z,97564.00
2022-12-19T14:54:10.726Z,97549.00
2022-12-19T14:59:45.401Z,97564.00
2022-12-19T15:05:00.103Z,97553.00
2022-12-19T15:11:09.161Z,97551.00
2022-12-19T15:16:25.782Z,97549.00
2022-12-19T15:21:28.576Z,97537.00
2022-12-19T15:26:34.057Z,97538.00
2022-12-19T15:31:39.838Z,97532.00
2022-12-19T15:36:40.867Z,97532.00
2022-12-19T15:41:43.277Z,97521.00
2022-12-19T15:46:48.939Z,97531.00
2022-12-19T15:51:50.498Z,97525.00
2022-12-19T15:56:54.836Z,97546.00
2022-12-19T16:01:57.022Z,97532.00
2022-12-19T16:06:58.239Z,97531.00
2022-12-19T16:11:59.192Z,97513.00
2022-12-19T16:17:00.039Z,97526.00
2022-12-19T16:22:01.502Z,97507.00
2022-12-19T16:27:03.189Z,97504.00
2022-12-19T16:32:05.153Z,97513.00
2022-12-19T16:37:06.108Z,97503.00
2022-12-19T16:42:14.408Z,97509.00
2022-12-19T16:47:17.581Z,97505.00
2022-12-19T16:52:18.479Z,97483.00
2022-12-19T16:57:21.516Z,97489.00
2022-12-19T17:02:41.429Z,97491.00
2022-12-19T17:07:42.500Z,97485.00
2022-12-19T17:12:44.902Z,97496.00
2022-12-19T17:17:46.195Z,97488.00
2022-12-19T17:22:48.081Z,97497.00
2022-12-19T17:27:49.970Z,97500.00
2022-12-19T17:32:53.970Z,97495.00
2022-12-19T17:37:57.727Z,97498.00
2022-12-19T17:42:59.123Z,97496.00
2022-12-19T17:48:03.989Z,97487.00
2022-12-19T17:53:05.340Z,97491.00
2022-12-19T17:58:06.233Z,97469.00
2022-12-19T18:03:20.929Z,97477.00
2022-12-19T18:08:28.611Z,97487.00
2022-12-19T18:13:31.293Z,97496.00
2022-12-19T18:18:35.764Z,97499.00
2022-12-19T18:23:36.545Z,97498.00
2022-12-19T18:28:38.862Z,97497.00
2022-12-19T18:33:42.386Z,97493.00
2022-12-19T18:38:43.732Z,97502.00
2022-12-19T18:43:45.331Z,97486.00
2022-12-19T18:48:46.157Z,97467.00
2022-12-19T18:53:49.520Z,97474.00
2022-12-19T18:58:50.268Z,97474.00
2022-12-19T19:03:53.871Z,97479.00
2022-12-19T19:08:56.267Z,97473.00
2022-12-19T19:14:43.052Z,97457.00
2022-12-19T19:19:43.814Z,97471.00
2022-12-19T19:24:44.561Z,97455.00
2022-12-19T19:29:45.302Z,97458.00
2022-12-19T19:34:46.280Z,97459.00
2022-12-19T19:39:47.120Z,97456.00
2022-12-19T19:44:47.896Z,97456.00
2022-12-19T19:49:48.825Z,97457.00
2022-12-19T19:54:49.941Z,97459.00
2022-12-19T19:59:50.724Z,97468.00
2022-12-19T20:04:51.747Z,97465.00
2022-12-19T20:09:53.234Z,97464.00
2022-12-19T20:14:54.325Z,97465.00
2022-12-19T20:19:55.106Z,97464.00
2022-12-19T20:24:56.635Z,97460.00
2022-12-19T20:29:57.388Z,97453.00
2022-12-19T20:34:58.531Z,97454.00
2022-12-19T20:39:59.333Z,97463.00
2022-12-19T20:45:00.115Z,97460.00
2022-12-19T20:50:00.961Z,97468.00
2022-12-19T20:55:01.811Z,97475.00
2022-12-19T21:00:09.743Z,97474.00
2022-12-19T21:05:10.841Z,97486.00
2022-12-19T21:10:11.745Z,97463.00
2022-12-19T21:15:12.723Z,97468.00
2022-12-19T21:20:14.582Z,97470.00
2022-12-19T21:25:15.416Z,97476.00
2022-12-19T21:30:16.360Z,97492.00
2022-12-19T21:35:17.389Z,97479.00
2022-12-19T21:40:18.707Z,97481.00
2022-12-19T21:45:19.494Z,97487.00
2022-12-19T21:50:20.244Z,97497.00
2022-12-19T21:55:22.798Z,97487.00
2022-12-19T22:00:23.981Z,97469.00
2022-12-19T22:05:25.136Z,97490.00
2022-12-19T22:10:25.861Z,97500.00
2022-12-19T22:15:27.219Z,97497.00
2022-12-19T22:20:27.940Z,97512.00
2022-12-19T22:25:28.737Z,97501.00
2022-12-19T22:30:33.590Z,97495.00
2022-12-19T22:35:34.757Z,97484.00
2022-12-19T22:40:35.897Z,97484.00
2022-12-19T22:45:36.711Z,97482.00
2022-12-19T22:50:44.760Z,97479.00
2022-12-19T22:55:45.587Z,97486.00
2022-12-19T23:00:46.746Z,97481.00
2022-12-19T23:05:51.823Z,97482.00
2022-12-19T23:10:53.309Z,97484.00
2022-12-19T23:15:56.626Z,97485.00
2022-12-19T23:21:12.797Z,97485.00
2022-12-19T23:26:16.631Z,97480.00
2022-12-19T23:31:17.688Z,97473.00
2022-12-19T23:36:38.113Z,97466.00
2022-12-19T23:42:01.680Z,97449.00
2022-12-19T23:47:04.058Z,97463.00
2022-12-19T23:52:05.073Z,97446.00
2022-12-19T23:57:05.856Z,97433.00
